• Join FlightAware (Why Join?)
  • Login
  • US Flag 
08:44PM EST


 

Airport Tracker/Info


-or-


 

Live Flight TrackerFlight Track Log ✈ ASQ4633 ✈ 18-Apr-2013 ✈ KBTV - KEWR

Flight Track Log - Related Links

Times and Time Zones

All times are in EDT time to prevent confusion due to time zone crossing. See the ASQ4633 flight status page for this flight to view local times or setup timezone preferences in your user account.

Time Position Orientation Groundspeed Altitude Reporting Facility
EDT Latitude Longitude Course Direction KTS MPH feet Rate Location/Type
07:07PM 44.3447 -73.1339 189° South 209 241 6,600  Level Boston Center
07:08PM 44.2819 -73.1622 198° South 222 255 8,600 2,220 Climbing Boston Center
07:09PM 44.0846 -73.2788 190° South  Level FlightAware Approximate
07:09PM 44.2067 -73.1931 196° South 256 295 11,100  Level Boston Center
07:10PM 44.0083 -73.3067 196° South  Level FlightAware Approximate
07:10PM 44.1272 -73.2267 197° South 283 326 12,100  Level Boston Center
07:11PM 43.9324 -73.3371 196° South  Level FlightAware Approximate
07:11PM 44.0397 -73.2631 197° South 318 366 13,200  Level Boston Center
07:12PM 43.8560 -73.3647 194° South  Level FlightAware Approximate
07:12PM 43.9497 -73.3022 197° South 337 388 14,700  Level Boston Center
07:13PM 43.8578 -73.3414 197° South 344 396 16,100 1,200 Climbing Boston Center
07:14PM 43.7678 -73.3803 197° South 344 396 17,200 1,140 Climbing Boston Center
07:15PM 43.6717 -73.4189 196° South 352 405 18,400 1,140 Climbing Boston Center
07:16PM 43.5839 -73.4547 196° South 362 417 19,500 1,140 Climbing Boston Center
07:17PM 43.4856 -73.4961 197° South 362 417 20,700 1,080 Climbing Boston Center
07:18PM 43.3850 -73.5342 195° South 367 422 21,800 600 Climbing Boston Center
07:19PM 43.2806 -73.5781 197° South 380 437 22,000 60 Climbing Boston Center
07:20PM 43.1717 -73.6214 196° South 400 460 22,000 -840 Level Boston Center
07:21PM 43.0503 -73.6731 197° South 410 472 20,300 -1,680 Descending Boston Center
07:22PM 42.9517 -73.7167 198° South 394 453 18,300 -1,680 Descending Boston Center
07:23PM 42.8469 -73.7653 199° South 376 433 16,700 -1,200 Descending Boston Center
07:24PM 42.7464 -73.8056 196° South 371 427 16,000 -360 Descending Boston Center
07:25PM 42.6500 -73.8514 199° South 371 427 16,000  Level Boston Center
07:26PM 42.5411 -73.8942 196° South 371 427 16,100  Climbing Boston Center
07:27PM 42.4531 -73.9342 199° South 371 427 16,000  Descending Boston Center
07:28PM 42.3442 -73.9822 198° South 371 427 16,100  Climbing Boston Center
07:29PM 42.2622 -74.0194 199° South 359 413 16,000 -60 Descending Boston Center
07:30PM 42.1681 -74.0592 197° South 343 395 16,000 -240 Level Boston Center
07:31PM 42.0922 -74.0964 200° South 313 360 15,600 -540 Descending Boston Center
07:32PM 42.0253 -74.1253 198° South 279 321 15,000 -840 Descending Boston Center
07:33PM 41.9622 -74.1544 199° South 248 285 13,900 -1,020 Descending Boston Center
07:34PM 41.9014 -74.1806 198° South 237 273 13,000 -960 Descending Boston Center
07:35PM 41.8447 -74.2042 197° South 224 258 12,000 -900 Descending Boston Center
07:36PM 41.7881 -74.2275 197° South 224 258 11,200 -420 Descending Boston Center
07:37PM 41.7378 -74.2511 199° South 209 241 11,200 -60 Level Boston Center
07:38PM 41.6811 -74.2747 197° South 209 241 11,100 -120 Descending Boston Center
07:39PM 41.6386 -74.3206 219° Southwest 204 235 11,000  Descending Boston Center
07:40PM 41.6667 -74.3825 301° West 168 193 11,100  Climbing Boston Center
07:41PM 41.7444 -74.3517 16° North 187 215 11,100  Level Boston Center
07:42PM 41.8178 -74.3231 16° North 243 280 11,100  Level Boston Center
07:43PM 41.8792 -74.2664 34° Northeast 274 315 11,100  Level Boston Center
07:44PM 41.8447 -74.2069 128° Southeast 177 204 11,100 -300 Level Boston Center
07:45PM 41.7842 -74.2081 181° South 166 191 10,500 -780 Descending Boston Center
07:46PM 41.7381 -74.2317 201° Southwest 181 208 9,600 -780 Descending Boston Center
07:47PM 41.7961 -74.2444 351° North 70 81 9,000 -300 Descending Boston Center
07:48PM 41.7869 -74.1719 100° East 152 175 9,100  Climbing Boston Center
07:49PM 41.7225 -74.1589 171° South 162 186 9,000 -60 Descending Boston Center
07:50PM 41.6925 -74.2111 232° Southwest 171 197 9,000  Level Boston Center
07:51PM 41.6767 -74.2828 254° West 186 214 9,100 -120 Climbing Boston Center
07:52PM 41.6508 -74.3461 241° Southwest 201 231 8,800 -840 Descending Boston Center
07:53PM 41.5836 -74.3633 191° South 205 236 7,500 -840 Descending Boston Center
07:55PM 41.5167 -74.3836 193° South 231 266 7,000 -240 Descending Boston Center
07:56PM 41.4544 -74.3622 166° South 223 257 7,100  Climbing Boston Center
07:57PM 41.4975 -74.2917 51° Northeast 187 215 7,100  Level Boston Center
07:58PM 41.5317 -74.3647 302° West 138 159 7,100  Level Boston Center
07:59PM 41.4853 -74.3881 201° Southwest 118 136 7,100 -60 Level Boston Center
08:00PM 41.4267 -74.4058 193° South 153 176 7,000 -60 Descending Boston Center
08:01PM 41.3786 -74.4208 193° South 191 220 7,000  Level Boston Center
08:02PM 41.3197 -74.4356 191° South 201 231 7,000  Level Boston Center
08:03PM 41.2656 -74.4394 183° South 201 231 7,000  Level Boston Center
08:04PM 41.2686 -74.3789 86° East 129 148 7,000  Level Boston Center
08:05PM 41.3614 -74.3236 24° Northeast 219 252 7,000  Level Boston Center
08:06PM 41.4244 -74.2978 17° North 250 288 7,000  Level Boston Center
08:07PM 41.4758 -74.3325 333° Northwest 219 252 7,000  Level Boston Center
08:08PM 41.4439 -74.3758 225° Southwest 106 122 7,000  Level Boston Center
08:09PM 41.3892 -74.4019 200° South 159 183 7,000  Level Boston Center
08:10PM 41.3431 -74.4197 196° South 191 220 7,000  Level Boston Center
08:11PM 41.2778 -74.4508 200° South 196 226 7,000  Level Boston Center
08:12PM 41.2497 -74.3919 122° Southeast 147 169 7,100  Climbing Boston Center
08:13PM 41.3089 -74.3550 25° Northeast 141 162 7,000 -60 Descending Boston Center
08:14PM 41.3800 -74.3242 18° North 229 264 7,000  Level Boston Center
08:16PM 41.4500 -74.3667 336° Northwest 264 304 7,100  Climbing New York TRACON
08:17PM 41.4000 -74.4000 207° Southwest 209 241 7,100  Level New York TRACON
08:18PM 41.3500 -74.4167 194° South 236 272 7,100  Level New York TRACON
08:19PM 41.2833 -74.4500 201° Southwest 232 267 7,100 -420 Level New York TRACON
08:20PM 41.2333 -74.4667 194° South 236 272 6,400 -540 Descending New York TRACON
08:21PM 41.1667 -74.5000 201° Southwest 229 264 6,100 -540 Descending New York TRACON
08:22PM 41.1333 -74.4167 118° Southeast 284 327 5,300 -540 Descending New York TRACON
08:23PM 41.1167 -74.3333 105° East 279 321 5,100 -120 Descending New York TRACON
08:24PM 41.0667 -74.2667 135° Southeast 242 278 5,100 -120 Level New York TRACON
08:25PM 41.0167 -74.2167 143° Southeast 240 276 4,900 -540 Descending New York TRACON
08:26PM 40.9667 -74.1667 143° Southeast 242 278 4,100 -480 Descending New York TRACON
08:27PM 40.9167 -74.1167 143° Southeast 211 243 4,000 -360 Descending New York TRACON
08:28PM 40.8833 -74.0667 131° Southeast 168 193 3,400 -540 Descending New York TRACON
08:29PM 40.8333 -74.0667 180° South 149 171 3,000 -480 Descending New York TRACON